^^
Station Historical Data
Daily Summary for February 18, 2017 Units:  English    Metric   Both
« Previous Day
Next Day »
Daily Weekly Monthly Yearly Custom
  High: Low: Average:
Temperature: 65.5 °F 25.0 °F 44.9 °F
Dew Point: 38.8 °F 20.8 °F 29.5 °F
Humidity: 85 % 34 % 58 %
Wind Speed: 11.5 mph 0.0 mph 1.8 mph
Wind Gust: 17.3 mph - -
Wind:- - WSW
Pressure: 29.91 in 29.69 in -
Precipitation: 0.00 in    
Historical Graphs
 
 
Tabular Data for February 18, 2017
Time Temperature Dew Point Pressure Wind Wind Speed Wind Gust Humidity Rainfall Rate (Hourly) solar Conditions
00:03 28.6 °F 21.4 °F 29.91 in Calm     74 % 0.00 in 0.0 W/m2 CLR
00:08 28.4 °F 21.2 °F 29.91 in Calm     74 % 0.00 in 0.0 W/m2 CLR
00:13 28.1 °F 20.9 °F 29.91 in Calm     74 % 0.00 in 0.0 W/m2 CLR
00:18 28.2 °F 21.3 °F 29.91 in Calm     75 % 0.00 in 0.0 W/m2 CLR
00:23 28.0 °F 21.1 °F 29.91 in Calm     75 % 0.00 in 0.0 W/m2 CLR
00:28 27.8 °F 20.9 °F 29.91 in Calm     75 % 0.00 in 0.0 W/m2 CLR
00:33 27.8 °F 21.2 °F 29.90 in Calm     76 % 0.00 in 0.0 W/m2 CLR
00:38 27.7 °F 21.1 °F 29.90 in Calm     76 % 0.00 in 0.0 W/m2 CLR
00:43 27.6 °F 21.0 °F 29.91 in Calm     76 % 0.00 in 0.0 W/m2 CLR
00:48 27.8 °F 21.2 °F 29.90 in Calm     76 % 0.00 in 0.0 W/m2 CLR
00:53 28.0 °F 21.4 °F 29.91 in Calm     76 % 0.00 in 0.0 W/m2 CLR
00:58 27.9 °F 21.3 °F 29.90 in Calm     76 % 0.00 in 0.0 W/m2 CLR
01:03 27.7 °F 21.1 °F 29.91 in Calm     76 % 0.00 in 0.0 W/m2 CLR
01:08 27.5 °F 20.9 °F 29.91 in Calm     76 % 0.00 in 0.0 W/m2 CLR
01:13 27.4 °F 21.1 °F 29.91 in Calm     77 % 0.00 in 0.0 W/m2 CLR
01:18 27.4 °F 21.1 °F 29.91 in Calm     77 % 0.00 in 0.0 W/m2 CLR
01:23 27.3 °F 21.0 °F 29.91 in WSW 1.5 mph 2.3 mph 77 % 0.00 in 0.0 W/m2 CLR
01:28 27.1 °F 21.2 °F 29.91 in Calm     78 % 0.00 in 0.0 W/m2 CLR
01:34 27.0 °F 21.1 °F 29.91 in Calm     78 % 0.00 in 0.0 W/m2 CLR
01:39 27.1 °F 21.5 °F 29.91 in Calm     79 % 0.00 in 0.0 W/m2 CLR
01:44 27.3 °F 21.6 °F 29.91 in Calm     79 % 0.00 in 0.0 W/m2 CLR
01:49 27.3 °F 21.6 °F 29.91 in Calm     79 % 0.00 in 0.0 W/m2 CLR
01:54 27.3 °F 21.6 °F 29.91 in Calm     79 % 0.00 in 0.0 W/m2 CLR
01:59 27.1 °F 21.5 °F 29.91 in Calm     79 % 0.00 in 0.0 W/m2 CLR
02:04 27.0 °F 21.4 °F 29.91 in Calm     79 % 0.00 in 0.0 W/m2 CLR
02:09 26.8 °F 21.5 °F 29.90 in Calm     80 % 0.00 in 0.0 W/m2 CLR
02:14 27.0 °F 21.4 °F 29.91 in Calm     79 % 0.00 in 0.0 W/m2 CLR
02:19 26.9 °F 21.3 °F 29.91 in Calm     79 % 0.00 in 0.0 W/m2 CLR
02:24 26.8 °F 21.2 °F 29.91 in Calm     79 % 0.00 in 0.0 W/m2 CLR
02:29 26.7 °F 21.4 °F 29.91 in Calm     80 % 0.00 in 0.0 W/m2 CLR
02:34 26.8 °F 21.5 °F 29.91 in Calm     80 % 0.00 in 0.0 W/m2 CLR
02:39 26.6 °F 21.3 °F 29.90 in Calm     80 % 0.00 in 0.0 W/m2 CLR
02:44 26.7 °F 21.4 °F 29.91 in Calm     80 % 0.00 in 0.0 W/m2 CLR
02:49 26.6 °F 21.3 °F 29.91 in Calm     80 % 0.00 in 0.0 W/m2 CLR
02:54 26.6 °F 21.6 °F 29.90 in Calm     81 % 0.00 in 0.0 W/m2 CLR
02:59 26.4 °F 21.1 °F 29.90 in WSW 0.5 mph 2.3 mph 80 % 0.00 in 0.0 W/m2 CLR
03:04 26.1 °F 20.8 °F 29.90 in Calm     80 % 0.00 in 0.0 W/m2 CLR
03:09 26.1 °F 21.1 °F 29.90 in Calm     81 % 0.00 in 0.0 W/m2 CLR
03:19 26.2 °F 21.2 °F 29.90 in Calm     81 % 0.00 in 0.0 W/m2 CLR
03:24 26.2 °F 21.2 °F 29.90 in Calm     81 % 0.00 in 0.0 W/m2 CLR
03:29 26.1 °F 21.1 °F 29.90 in Calm     81 % 0.00 in 0.0 W/m2 CLR
03:34 26.0 °F 21.3 °F 29.90 in Calm     82 % 0.00 in 0.0 W/m2 CLR
03:39 26.2 °F 21.5 °F 29.90 in Calm     82 % 0.00 in 0.0 W/m2 CLR
03:44 26.1 °F 21.4 °F 29.90 in Calm     82 % 0.00 in 0.0 W/m2 CLR
03:49 25.9 °F 21.2 °F 29.89 in Calm     82 % 0.00 in 0.0 W/m2 CLR
03:54 25.8 °F 21.1 °F 29.89 in Calm     82 % 0.00 in 0.0 W/m2 CLR
03:59 25.9 °F 21.4 °F 29.89 in Calm     83 % 0.00 in 0.0 W/m2 CLR
04:04 25.9 °F 21.4 °F 29.90 in Calm     83 % 0.00 in 0.0 W/m2 CLR
04:09 26.0 °F 21.3 °F 29.90 in Calm     82 % 0.00 in 0.0 W/m2 CLR
04:14 26.0 °F 21.5 °F 29.90 in Calm     83 % 0.00 in 0.0 W/m2 CLR
04:19 26.0 °F 21.5 °F 29.89 in Calm     83 % 0.00 in 0.0 W/m2 CLR
04:24 26.0 °F 21.3 °F 29.89 in Calm     82 % 0.00 in 0.0 W/m2 CLR
04:29 26.1 °F 21.6 °F 29.89 in Calm     83 % 0.00 in 0.0 W/m2 CLR
04:34 26.1 °F 21.4 °F 29.89 in Calm     82 % 0.00 in 0.0 W/m2 CLR
04:39 26.2 °F 21.7 °F 29.89 in Calm     83 % 0.00 in 0.0 W/m2 CLR
04:44 26.2 °F 21.5 °F 29.89 in Calm     82 % 0.00 in 0.0 W/m2 CLR
04:49 26.0 °F 21.3 °F 29.89 in Calm     82 % 0.00 in 0.0 W/m2 CLR
04:54 25.9 °F 21.4 °F 29.89 in Calm     83 % 0.00 in 0.0 W/m2 CLR
04:59 25.9 °F 21.4 °F 29.89 in Calm     83 % 0.00 in 0.0 W/m2 CLR
05:04 25.8 °F 21.3 °F 29.89 in Calm     83 % 0.00 in 0.0 W/m2 CLR
05:09 25.8 °F 21.3 °F 29.89 in Calm     83 % 0.00 in 0.0 W/m2 CLR
05:14 25.8 °F 21.3 °F 29.89 in Calm     83 % 0.00 in 0.0 W/m2 CLR
05:19 25.9 °F 21.4 °F 29.89 in Calm     83 % 0.00 in 0.0 W/m2 CLR
05:24 25.7 °F 21.3 °F 29.88 in Calm     83 % 0.00 in 0.0 W/m2 CLR
05:29 25.7 °F 21.5 °F 29.89 in Calm     84 % 0.00 in 0.0 W/m2 CLR
05:34 25.7 °F 21.5 °F 29.88 in Calm     84 % 0.00 in 0.0 W/m2 CLR
05:40 25.7 °F 21.5 °F 29.88 in Calm     84 % 0.00 in 0.0 W/m2 CLR
05:44 25.6 °F 21.4 °F 29.88 in Calm     84 % 0.00 in 0.0 W/m2 CLR
05:49 25.5 °F 21.3 °F 29.88 in Calm     84 % 0.00 in 0.0 W/m2 CLR
05:54 25.5 °F 21.3 °F 29.88 in Calm     84 % 0.00 in 0.0 W/m2 CLR
05:59 25.4 °F 21.2 °F 29.88 in Calm     84 % 0.00 in 0.0 W/m2 CLR
06:04 25.4 °F 21.2 °F 29.88 in Calm     84 % 0.00 in 0.0 W/m2 CLR
06:09 25.4 °F 21.0 °F 29.88 in Calm     83 % 0.00 in 0.0 W/m2 CLR
06:14 25.4 °F 21.0 °F 29.88 in Calm     83 % 0.00 in 0.0 W/m2 CLR
06:20 25.4 °F 21.0 °F 29.88 in Calm     83 % 0.00 in 0.0 W/m2 CLR
06:25 25.3 °F 21.1 °F 29.88 in Calm     84 % 0.00 in 0.0 W/m2 CLR
06:30 25.2 °F 21.0 °F 29.88 in Calm     84 % 0.00 in 0.0 W/m2 CLR
06:35 25.2 °F 21.0 °F 29.88 in Calm     84 % 0.00 in 0.0 W/m2 CLR
06:40 25.3 °F 21.1 °F 29.88 in Calm     84 % 0.00 in 0.0 W/m2 OVC
06:45 25.1 °F 20.9 °F 29.87 in Calm     84 % 0.00 in 0.0 W/m2 CLR
06:50 25.1 °F 21.2 °F 29.87 in Calm     85 % 0.00 in 0.0 W/m2 CLR
06:55 25.1 °F 21.2 °F 29.87 in Calm     85 % 0.00 in 5.0 W/m2 CLR
07:00 25.0 °F 21.1 °F 29.87 in Calm     85 % 0.00 in 7.0 W/m2 CLR
07:05 25.1 °F 21.2 °F 29.87 in Calm     85 % 0.00 in 11.0 W/m2 CLR
07:10 25.3 °F 21.4 °F 29.86 in Calm     85 % 0.00 in 12.0 W/m2 CLR
07:15 25.3 °F 21.4 °F 29.87 in Calm     85 % 0.00 in 14.0 W/m2 CLR
07:20 25.5 °F 21.6 °F 29.87 in Calm     85 % 0.00 in 16.0 W/m2 CLR
07:25 25.6 °F 21.7 °F 29.87 in Calm     85 % 0.00 in 19.0 W/m2 CLR
07:30 25.8 °F 21.9 °F 29.86 in Calm     85 % 0.00 in 21.0 W/m2 CLR
07:35 25.9 °F 21.7 °F 29.87 in Calm     84 % 0.00 in 23.0 W/m2 CLR
07:40 26.4 °F 22.5 °F 29.87 in Calm     85 % 0.00 in 39.0 W/m2 FEW
07:45 27.0 °F 22.8 °F 29.88 in Calm     84 % 0.00 in 32.0 W/m2 BKN
07:50 27.4 °F 22.9 °F 29.88 in Calm     83 % 0.00 in 49.0 W/m2 SCT
07:55 27.8 °F 23.0 °F 29.88 in Calm     82 % 0.00 in 56.0 W/m2 SCT
08:00 28.4 °F 23.6 °F 29.88 in Calm     82 % 0.00 in 70.0 W/m2 SCT
08:05 29.0 °F 23.6 °F 29.88 in Calm     80 % 0.00 in 113.0 W/m2 CLR
08:10 29.3 °F 23.6 °F 29.88 in Calm     79 % 0.00 in 114.0 W/m2 CLR
08:15 29.8 °F 23.8 °F 29.88 in Calm     78 % 0.00 in 139.0 W/m2 CLR
08:20 30.4 °F 23.7 °F 29.89 in Calm     76 % 0.00 in 146.0 W/m2 CLR
08:25 31.0 °F 23.7 °F 29.89 in Calm     74 % 0.00 in 221.0 W/m2 CLR
08:31 31.7 °F 23.7 °F 29.89 in Calm     72 % 0.00 in 223.0 W/m2 CLR
08:36 32.2 °F 23.8 °F 29.89 in Calm     71 % 0.00 in 237.0 W/m2 CLR
08:41 32.8 °F 24.1 °F 29.89 in Calm     70 % 0.00 in 236.0 W/m2 CLR
08:46 33.4 °F 24.3 °F 29.88 in Calm     69 % 0.00 in 288.0 W/m2 CLR
08:51 33.7 °F 24.3 °F 29.89 in Calm     68 % 0.00 in 279.0 W/m2 CLR
08:56 34.2 °F 24.7 °F 29.89 in Calm     68 % 0.00 in 193.0 W/m2 FEW
09:01 34.7 °F 24.5 °F 29.89 in Calm     66 % 0.00 in 350.0 W/m2 CLR
09:06 35.2 °F 24.6 °F 29.89 in Calm     65 % 0.00 in 220.0 W/m2 CLR
09:11 35.9 °F 25.3 °F 29.88 in Calm     65 % 0.00 in 309.0 W/m2 CLR
09:16 36.8 °F 25.8 °F 29.88 in Calm     64 % 0.00 in 287.0 W/m2 FEW
09:21 37.9 °F 26.4 °F 29.88 in Calm     63 % 0.00 in 304.0 W/m2 FEW
09:26 39.1 °F 26.8 °F 29.88 in West 3.6 mph 6.9 mph 61 % 0.00 in 325.0 W/m2 CLR
09:31 39.6 °F 26.8 °F 29.88 in Calm   3.5 mph 60 % 0.00 in 408.0 W/m2 CLR
09:36 40.5 °F 27.7 °F 29.88 in WSW 1.3 mph 4.0 mph 60 % 0.00 in 392.0 W/m2 CLR
09:41 41.5 °F 27.8 °F 29.88 in West 4.0 mph 5.8 mph 58 % 0.00 in 438.0 W/m2 CLR
09:46 42.2 °F 28.5 °F 29.88 in West 1.6 mph 6.0 mph 58 % 0.00 in 487.0 W/m2 CLR
09:51 43.0 °F 28.8 °F 29.88 in West 3.0 mph 3.5 mph 57 % 0.00 in 510.0 W/m2 CLR
09:56 43.8 °F 28.2 °F 29.87 in WNW 4.8 mph 5.8 mph 54 % 0.00 in 529.0 W/m2 CLR
10:01 44.2 °F 28.6 °F 29.87 in West 1.2 mph 3.5 mph 54 % 0.00 in 508.0 W/m2 CLR
10:06 44.3 °F 28.2 °F 29.87 in West 1.8 mph 4.0 mph 53 % 0.00 in 348.0 W/m2 CLR
10:11 44.7 °F 28.1 °F 29.86 in WNW 4.5 mph 8.1 mph 52 % 0.00 in 404.0 W/m2 CLR
10:16 45.0 °F 28.4 °F 29.86 in West 4.8 mph 6.9 mph 52 % 0.00 in 417.0 W/m2 CLR
10:21 45.3 °F 28.7 °F 29.86 in NW 3.1 mph 5.0 mph 52 % 0.00 in 438.0 W/m2 CLR
10:26 45.9 °F 28.8 °F 29.85 in WNW 5.1 mph 10.0 mph 51 % 0.00 in 520.0 W/m2 CLR
10:31 45.9 °F 28.8 °F 29.85 in WSW 5.4 mph 8.1 mph 51 % 0.00 in 543.0 W/m2 CLR
10:36 45.8 °F 28.7 °F 29.85 in WSW 5.8 mph 8.1 mph 51 % 0.00 in 415.0 W/m2 CLR
10:41 45.8 °F 28.7 °F 29.84 in WSW 5.4 mph 8.1 mph 51 % 0.00 in 387.0 W/m2 CLR
10:46 46.2 °F 29.1 °F 29.84 in SW 4.0 mph 9.2 mph 51 % 0.00 in 350.0 W/m2 CLR
10:51 47.1 °F 29.4 °F 29.84 in WSW 6.4 mph 9.2 mph 50 % 0.00 in 410.0 W/m2 FEW
10:56 47.6 °F 29.4 °F 29.84 in WSW 1.0 mph 5.8 mph 49 % 0.00 in 385.0 W/m2 FEW
11:02 48.2 °F 29.9 °F 29.84 in West 6.4 mph 9.2 mph 49 % 0.00 in 411.0 W/m2 CLR
11:07 48.3 °F 30.0 °F 29.83 in West 2.4 mph 6.9 mph 49 % 0.00 in 612.0 W/m2 CLR
11:12 48.7 °F 30.4 °F 29.83 in West 2.7 mph 3.5 mph 49 % 0.00 in 624.0 W/m2 CLR
11:17 48.7 °F 30.4 °F 29.82 in SW 6.4 mph 11.0 mph 49 % 0.00 in 628.0 W/m2 CLR
11:22 48.8 °F 30.5 °F 29.82 in SW 5.1 mph 8.1 mph 49 % 0.00 in 633.0 W/m2 CLR
11:27 49.1 °F 30.7 °F 29.81 in West 4.4 mph 7.0 mph 49 % 0.00 in 638.0 W/m2 CLR
11:32 49.6 °F 31.2 °F 29.81 in SW 4.6 mph 5.8 mph 49 % 0.00 in 642.0 W/m2 CLR
11:37 50.2 °F 31.8 °F 29.81 in SSW 3.2 mph 4.6 mph 49 % 0.00 in 645.0 W/m2 CLR
11:42 51.1 °F 32.1 °F 29.80 in SW 2.8 mph 5.8 mph 48 % 0.00 in 649.0 W/m2 CLR
11:47 51.6 °F 32.0 °F 29.80 in SW 4.4 mph 5.8 mph 47 % 0.00 in 652.0 W/m2 CLR
11:52 52.3 °F 32.6 °F 29.80 in WSW 2.3 mph 4.6 mph 47 % 0.00 in 654.0 W/m2 CLR
11:55 52.8 °F 32.6 °F 29.79 in WSW 6.2 mph 9.2 mph 46 % 0.00 in 656.0 W/m2 CLR
11:56 52.8 °F 32.6 °F 29.79 in West 5.7 mph 9.2 mph 46 % 0.00 in 656.0 W/m2 CLR
11:57 52.9 °F 32.7 °F 29.79 in West 7.4 mph 11.5 mph 46 % 0.00 in 659.0 W/m2 CLR
11:59 53.0 °F 32.8 °F 29.79 in WNW 2.4 mph 3.5 mph 46 % 0.00 in 657.0 W/m2 CLR
12:04 53.5 °F 32.7 °F 29.79 in WSW 5.6 mph 10.4 mph 45 % 0.00 in 661.0 W/m2 CLR
12:09 53.7 °F 32.8 °F 29.78 in WSW 5.3 mph 8.1 mph 45 % 0.00 in 661.0 W/m2 CLR
12:14 54.4 °F 34.0 °F 29.77 in SW 5.5 mph 10.4 mph 46 % 0.00 in 664.0 W/m2 CLR
12:24 54.9 °F 33.4 °F 29.76 in SW 7.7 mph 11.5 mph 44 % 0.00 in 666.0 W/m2 CLR
12:29 55.6 °F 34.0 °F 29.76 in West 2.5 mph 5.8 mph 44 % 0.00 in 670.0 W/m2 CLR
12:34 55.8 °F 34.2 °F 29.76 in SW 6.6 mph 9.2 mph 44 % 0.00 in 656.0 W/m2 CLR
12:39 56.0 °F 34.4 °F 29.76 in West 6.8 mph 10.0 mph 44 % 0.00 in 663.0 W/m2 CLR
12:44 56.3 °F 34.6 °F 29.75 in WSW 6.3 mph 9.2 mph 44 % 0.00 in 661.0 W/m2 CLR
12:45 56.3 °F 34.6 °F 29.75 in WSW 4.9 mph 9.2 mph 44 % 0.00 in 659.0 W/m2 CLR
12:55 57.4 °F 35.6 °F 29.75 in WSW 3.4 mph 4.6 mph 44 % 0.00 in 656.0 W/m2 CLR
13:00 58.3 °F 35.3 °F 29.74 in SSW 5.0 mph 8.1 mph 42 % 0.00 in 654.0 W/m2 CLR
13:05 58.7 °F 35.0 °F 29.74 in West 5.5 mph 10.4 mph 41 % 0.00 in 615.0 W/m2 CLR
13:10 58.9 °F 35.8 °F 29.74 in SW 5.4 mph 8.1 mph 42 % 0.00 in 638.0 W/m2 CLR
13:15 59.3 °F 36.2 °F 29.73 in SW 5.7 mph 10.4 mph 42 % 0.00 in 649.0 W/m2 CLR
13:20 59.5 °F 35.8 °F 29.72 in WSW 0.9 mph 4.0 mph 41 % 0.00 in 652.0 W/m2 CLR
13:25 60.1 °F 36.3 °F 29.72 in SW 7.0 mph 11.5 mph 41 % 0.00 in 661.0 W/m2 CLR
13:30 60.3 °F 36.5 °F 29.72 in WSW 6.8 mph 12.7 mph 41 % 0.00 in 663.0 W/m2 CLR
13:35 61.0 °F 37.1 °F 29.72 in WSW 2.8 mph 6.0 mph 41 % 0.00 in 677.0 W/m2 CLR
13:40 61.1 °F 36.6 °F 29.72 in SW 7.9 mph 12.7 mph 40 % 0.00 in 563.0 W/m2 CLR
13:41 61.1 °F 36.6 °F 29.72 in SSW 4.3 mph 11.5 mph 40 % 0.00 in 533.0 W/m2 CLR
13:46 61.3 °F 36.8 °F 29.72 in WSW 6.9 mph 9.2 mph 40 % 0.00 in 541.0 W/m2 CLR
13:51 61.3 °F 37.4 °F 29.71 in SW 4.9 mph 8.1 mph 41 % 0.00 in 628.0 W/m2 CLR
13:56 62.2 °F 37.6 °F 29.71 in SW 9.3 mph 12.0 mph 40 % 0.00 in 466.0 W/m2 CLR
14:01 62.4 °F 37.7 °F 29.72 in WSW 10.8 mph 15.0 mph 40 % 0.00 in 534.0 W/m2 CLR
14:06 62.7 °F 37.4 °F 29.72 in WSW 11.5 mph 15.0 mph 39 % 0.00 in 538.0 W/m2 CLR
14:11 63.1 °F 37.1 °F 29.72 in West 6.3 mph 10.4 mph 38 % 0.00 in 320.0 W/m2 CLR
14:16 63.0 °F 37.0 °F 29.72 in West 10.0 mph 16.1 mph 38 % 0.00 in 443.0 W/m2 CLR
14:21 63.0 °F 37.0 °F 29.71 in WSW 6.2 mph 15.0 mph 38 % 0.00 in 373.0 W/m2 CLR
14:26 63.0 °F 37.0 °F 29.71 in WSW 7.1 mph 12.7 mph 38 % 0.00 in 308.0 W/m2 FEW
14:31 62.9 °F 37.5 °F 29.72 in West 6.3 mph 15.0 mph 39 % 0.00 in 306.0 W/m2 FEW
14:36 62.9 °F 37.5 °F 29.71 in West 8.7 mph 15.0 mph 39 % 0.00 in 350.0 W/m2 CLR
14:41 63.4 °F 38.0 °F 29.71 in WSW 10.4 mph 15.0 mph 39 % 0.00 in 378.0 W/m2 FEW
14:46 63.2 °F 37.2 °F 29.70 in SW 11.2 mph 17.3 mph 38 % 0.00 in 236.0 W/m2 SCT
14:51 63.5 °F 38.1 °F 29.71 in SSW 7.2 mph 11.5 mph 39 % 0.00 in 503.0 W/m2 CLR
14:56 64.4 °F 38.2 °F 29.71 in SSW 9.2 mph 13.8 mph 38 % 0.00 in 473.0 W/m2 CLR
15:01 64.6 °F 38.4 °F 29.71 in WSW 8.7 mph 13.8 mph 38 % 0.00 in 446.0 W/m2 CLR
15:06 64.6 °F 37.7 °F 29.71 in SW 7.6 mph 12.7 mph 37 % 0.00 in 279.0 W/m2 CLR
15:11 64.3 °F 38.1 °F 29.70 in SW 4.2 mph 9.0 mph 38 % 0.00 in 274.0 W/m2 SCT
15:16 64.7 °F 38.5 °F 29.70 in SW 6.3 mph 12.0 mph 38 % 0.00 in 415.0 W/m2 CLR
15:22 65.1 °F 38.8 °F 29.70 in WSW 8.1 mph 11.5 mph 38 % 0.00 in 369.0 W/m2 CLR
15:27 65.2 °F 38.3 °F 29.70 in WSW 10.7 mph 15.0 mph 37 % 0.00 in 302.0 W/m2 CLR
15:32 65.0 °F 38.8 °F 29.70 in West 6.8 mph 11.5 mph 38 % 0.00 in 360.0 W/m2 CLR
15:37 65.4 °F 38.4 °F 29.70 in SW 4.3 mph 11.5 mph 37 % 0.00 in 185.0 W/m2 CLR
15:42 65.4 °F 38.4 °F 29.70 in SW 4.8 mph 11.5 mph 37 % 0.00 in 311.0 W/m2 CLR
15:47 65.5 °F 37.8 °F 29.70 in WSW 9.2 mph 13.0 mph 36 % 0.00 in 158.0 W/m2 CLR
15:52 65.5 °F 38.5 °F 29.70 in West 9.0 mph 10.0 mph 37 % 0.00 in 265.0 W/m2 CLR
15:57 65.3 °F 38.3 °F 29.70 in SW 5.8 mph 6.9 mph 37 % 0.00 in 172.0 W/m2 SCT
16:02 65.3 °F 38.3 °F 29.70 in SW 2.0 mph 5.0 mph 37 % 0.00 in 178.0 W/m2 CLR
16:07 65.4 °F 37.0 °F 29.70 in WSW 6.9 mph 13.8 mph 35 % 0.00 in 69.0 W/m2 FEW
16:12 65.1 °F 36.8 °F 29.70 in WSW 7.1 mph 15.0 mph 35 % 0.00 in 135.0 W/m2 SCT
16:17 65.0 °F 37.4 °F 29.69 in WSW 3.2 mph 4.6 mph 36 % 0.00 in 207.0 W/m2 CLR
16:22 65.3 °F 37.6 °F 29.70 in SW 0.6 mph 3.5 mph 36 % 0.00 in 199.0 W/m2 CLR
16:27 65.4 °F 37.0 °F 29.70 in SSW 3.3 mph 9.2 mph 35 % 0.00 in 167.0 W/m2 CLR
16:32 65.4 °F 36.3 °F 29.70 in SW 1.5 mph 3.5 mph 34 % 0.00 in 97.0 W/m2 FEW
16:37 65.3 °F 36.2 °F 29.70 in SW 0.9 mph 3.5 mph 34 % 0.00 in 81.0 W/m2 SCT
16:42 64.9 °F 36.6 °F 29.70 in SW 0.1 mph 2.3 mph 35 % 0.00 in 65.0 W/m2 SCT
16:47 64.6 °F 36.3 °F 29.70 in SW 2.0 mph 9.2 mph 35 % 0.00 in 53.0 W/m2 SCT
16:52 64.4 °F 36.1 °F 29.70 in SW 1.9 mph 5.0 mph 35 % 0.00 in 81.0 W/m2 CLR
16:57 64.3 °F 36.0 °F 29.70 in WSW 0.4 mph 3.5 mph 35 % 0.00 in 69.0 W/m2 CLR
17:02 64.0 °F 35.8 °F 29.70 in WSW 4.0 mph 10.4 mph 35 % 0.00 in 56.0 W/m2 FEW
17:07 63.7 °F 35.5 °F 29.71 in SW 2.7 mph 8.1 mph 35 % 0.00 in 49.0 W/m2 CLR
17:12 63.5 °F 35.3 °F 29.70 in SW 3.7 mph 9.2 mph 35 % 0.00 in 40.0 W/m2 CLR
17:17 63.4 °F 35.2 °F 29.71 in SW 4.4 mph 9.2 mph 35 % 0.00 in 32.0 W/m2 CLR
17:22 63.3 °F 35.2 °F 29.71 in SW 0.7 mph 3.5 mph 35 % 0.00 in 21.0 W/m2 FEW
17:27 62.9 °F 34.8 °F 29.71 in Calm   3.5 mph 35 % 0.00 in 16.0 W/m2 CLR
17:32 62.9 °F 34.8 °F 29.71 in SW 1.8 mph 5.8 mph 35 % 0.00 in 9.0 W/m2 CLR
17:37 62.5 °F 34.5 °F 29.71 in SW 0.9 mph 5.0 mph 35 % 0.00 in 5.0 W/m2 CLR
17:42 62.3 °F 35.0 °F 29.71 in Calm   6.9 mph 36 % 0.00 in 0.0 W/m2 CLR
17:47 61.6 °F 35.1 °F 29.71 in WSW 3.0 mph 4.6 mph 37 % 0.00 in 0.0 W/m2 CLR
17:52 61.5 °F 35.0 °F 29.71 in SW 0.1 mph 4.6 mph 37 % 0.00 in 0.0 W/m2 CLR
17:57 61.0 °F 35.2 °F 29.71 in Calm     38 % 0.00 in 0.0 W/m2 CLR
18:02 60.7 °F 34.9 °F 29.71 in Calm     38 % 0.00 in 0.0 W/m2 CLR
18:07 60.3 °F 35.2 °F 29.71 in Calm     39 % 0.00 in 0.0 W/m2 CLR
18:12 59.9 °F 34.9 °F 29.71 in Calm     39 % 0.00 in 0.0 W/m2 CLR
18:17 59.8 °F 34.8 °F 29.71 in Calm     39 % 0.00 in 0.0 W/m2 CLR
18:22 59.6 °F 35.2 °F 29.71 in Calm     40 % 0.00 in 0.0 W/m2 CLR
18:27 59.2 °F 34.9 °F 29.71 in Calm     40 % 0.00 in 0.0 W/m2 CLR
18:32 58.6 °F 35.0 °F 29.71 in Calm     41 % 0.00 in 0.0 W/m2 CLR
18:38 57.0 °F 34.7 °F 29.71 in Calm     43 % 0.00 in 0.0 W/m2 CLR
18:43 56.8 °F 34.5 °F 29.71 in Calm     43 % 0.00 in 0.0 W/m2 CLR
18:48 56.5 °F 34.8 °F 29.71 in Calm     44 % 0.00 in 0.0 W/m2 CLR
18:53 56.2 °F 34.6 °F 29.71 in Calm     44 % 0.00 in 0.0 W/m2 CLR
18:58 55.9 °F 34.8 °F 29.71 in Calm     45 % 0.00 in 0.0 W/m2 CLR
19:03 56.1 °F 34.5 °F 29.71 in Calm     44 % 0.00 in 0.0 W/m2 CLR
19:08 56.0 °F 34.4 °F 29.71 in WSW 0.1 mph 3.5 mph 44 % 0.00 in 0.0 W/m2 CLR
19:13 56.4 °F 34.7 °F 29.71 in Calm     44 % 0.00 in 0.0 W/m2 CLR
19:18 57.1 °F 34.8 °F 29.71 in Calm     43 % 0.00 in 0.0 W/m2 CLR
19:23 57.4 °F 34.5 °F 29.70 in WSW 2.7 mph 8.1 mph 42 % 0.00 in 0.0 W/m2 CLR
19:28 58.1 °F 34.5 °F 29.70 in SW 0.7 mph 3.5 mph 41 % 0.00 in 0.0 W/m2 CLR
19:33 58.4 °F 34.2 °F 29.71 in SW 0.4 mph 3.5 mph 40 % 0.00 in 0.0 W/m2 CLR
19:38 58.5 °F 34.2 °F 29.71 in WSW 0.2 mph 2.3 mph 40 % 0.00 in 0.0 W/m2 CLR
19:43 58.4 °F 34.2 °F 29.71 in West 0.2 mph 1.2 mph 40 % 0.00 in 0.0 W/m2 CLR
19:48 58.4 °F 34.2 °F 29.71 in Calm     40 % 0.00 in 0.0 W/m2 CLR
19:53 58.5 °F 34.2 °F 29.71 in West 0.6 mph 3.5 mph 40 % 0.00 in 0.0 W/m2 CLR
19:58 57.8 °F 34.2 °F 29.71 in Calm     41 % 0.00 in 0.0 W/m2 CLR
20:03 56.5 °F 33.7 °F 29.71 in Calm   1.2 mph 42 % 0.00 in 0.0 W/m2 CLR
20:08 56.0 °F 34.4 °F 29.71 in WSW 2.0 mph 6.0 mph 44 % 0.00 in 0.0 W/m2 CLR
20:13 55.9 °F 34.3 °F 29.71 in West 1.4 mph 3.5 mph 44 % 0.00 in 0.0 W/m2 CLR
20:18 55.4 °F 34.4 °F 29.71 in WSW 0.6 mph 3.5 mph 45 % 0.00 in 0.0 W/m2 CLR
20:23 55.2 °F 34.2 °F 29.71 in WSW 0.1 mph 1.0 mph 45 % 0.00 in 0.0 W/m2 CLR
20:28 55.1 °F 34.7 °F 29.72 in WSW 0.4 mph 3.5 mph 46 % 0.00 in 0.0 W/m2 CLR
20:33 54.9 °F 34.5 °F 29.72 in WSW 1.0 mph 2.3 mph 46 % 0.00 in 0.0 W/m2 CLR
20:43 54.5 °F 34.7 °F 29.72 in Calm     47 % 0.00 in 0.0 W/m2 CLR
20:48 54.5 °F 34.7 °F 29.72 in Calm     47 % 0.00 in 0.0 W/m2 CLR
20:58 54.5 °F 34.7 °F 29.72 in West 1.2 mph 9.0 mph 47 % 0.00 in 0.0 W/m2 CLR
21:03 54.8 °F 34.9 °F 29.72 in WSW 0.3 mph 6.9 mph 47 % 0.00 in 0.0 W/m2 CLR
21:08 55.0 °F 35.1 °F 29.72 in WSW 3.7 mph 9.2 mph 47 % 0.00 in 0.0 W/m2 CLR
21:13 55.1 °F 34.7 °F 29.72 in WSW 1.3 mph 8.0 mph 46 % 0.00 in 0.0 W/m2 CLR
21:18 55.2 °F 34.8 °F 29.72 in SSW 0.7 mph 4.6 mph 46 % 0.00 in 0.0 W/m2 CLR
21:23 55.1 °F 34.7 °F 29.72 in Calm   2.3 mph 46 % 0.00 in 0.0 W/m2 CLR
21:28 55.0 °F 34.6 °F 29.72 in Calm     46 % 0.00 in 0.0 W/m2 CLR
21:33 54.6 °F 34.8 °F 29.72 in WSW 0.1 mph   47 % 0.00 in 0.0 W/m2 CLR
21:38 53.6 °F 34.4 °F 29.72 in Calm     48 % 0.00 in 0.0 W/m2 CLR
21:43 52.7 °F 34.6 °F 29.72 in Calm     50 % 0.00 in 0.0 W/m2 CLR
21:48 52.3 °F 34.7 °F 29.72 in Calm     51 % 0.00 in 0.0 W/m2 CLR
21:53 51.8 °F 34.2 °F 29.71 in Calm     51 % 0.00 in 0.0 W/m2 CLR
21:59 51.3 °F 34.3 °F 29.71 in Calm     52 % 0.00 in 0.0 W/m2 CLR
22:04 50.7 °F 34.2 °F 29.71 in SW 0.1 mph   53 % 0.00 in 0.0 W/m2 CLR
22:09 49.2 °F 33.7 °F 29.72 in Calm     55 % 0.00 in 0.0 W/m2 CLR
22:14 48.4 °F 33.9 °F 29.72 in Calm     57 % 0.00 in 0.0 W/m2 CLR
22:19 48.9 °F 34.3 °F 29.71 in Calm     57 % 0.00 in 0.0 W/m2 CLR
22:24 49.6 °F 34.5 °F 29.71 in Calm   1.2 mph 56 % 0.00 in 0.0 W/m2 CLR
22:29 49.7 °F 34.2 °F 29.71 in Calm     55 % 0.00 in 0.0 W/m2 CLR
22:34 49.2 °F 34.2 °F 29.72 in Calm     56 % 0.00 in 0.0 W/m2 CLR
22:39 49.6 °F 34.5 °F 29.72 in Calm     56 % 0.00 in 0.0 W/m2 CLR
22:44 49.8 °F 34.3 °F 29.72 in Calm     55 % 0.00 in 0.0 W/m2 CLR
22:49 50.4 °F 34.4 °F 29.72 in WSW 0.1 mph 1.2 mph 54 % 0.00 in 0.0 W/m2 CLR
22:54 51.3 °F 34.7 °F 29.72 in Calm     53 % 0.00 in 0.0 W/m2 CLR
22:59 51.5 °F 34.4 °F 29.72 in Calm     52 % 0.00 in 0.0 W/m2 CLR
23:04 51.5 °F 34.4 °F 29.72 in Calm     52 % 0.00 in 0.0 W/m2 CLR
23:09 51.5 °F 34.4 °F 29.72 in Calm   1.0 mph 52 % 0.00 in 0.0 W/m2 CLR
23:14 51.8 °F 34.7 °F 29.72 in Calm     52 % 0.00 in 0.0 W/m2 CLR
23:19 51.7 °F 34.6 °F 29.72 in Calm     52 % 0.00 in 0.0 W/m2 CLR
23:24 51.9 °F 34.8 °F 29.72 in West 0.1 mph 3.5 mph 52 % 0.00 in 0.0 W/m2 CLR
23:29 52.1 °F 34.5 °F 29.72 in Calm   2.3 mph 51 % 0.00 in 0.0 W/m2 CLR
23:34 52.1 °F 34.5 °F 29.72 in Calm     51 % 0.00 in 0.0 W/m2 CLR
23:36 52.2 °F 34.6 °F 29.72 in Calm   1.2 mph 51 % 0.00 in 0.0 W/m2 CLR
23:41 52.4 °F 34.8 °F 29.72 in WSW 0.1 mph 5.8 mph 51 % 0.00 in 0.0 W/m2 CLR
23:46 52.6 °F 35.0 °F 29.72 in West 1.2 mph 5.8 mph 51 % 0.00 in 0.0 W/m2 CLR
23:51 52.6 °F 35.0 °F 29.73 in Calm     51 % 0.00 in 0.0 W/m2 CLR
23:56 52.8 °F 34.7 °F 29.73 in WSW 0.4 mph 3.5 mph 50 % 0.00 in 0.0 W/m2 CLR
Air Products Campus Weather
Compliments of Weather Underground - 3.5 mb